KEFD

Ellington Airport

Houston, Texas, USA
METAR KEFD 201650Z 34010KT 7SM OVC009 21/19 A3013
Observed Flight Rules
Oct-20 @ 16:50 UTC (42 minutes ago) Instrument Flight Rules
Wind Visibility Clouds
340° at 10 knots 7 miles
  • Overcast at 900' AGL
Temperatures Readings
Current 21°C / 70°F
Dewpoint 19°C / 66°F
Humidity 88%
Altimeter 30.13" Hg
Pressure 1020 hPa
Elevation 10
METAR KEFD 201650Z 34010KT 7SM OVC009 21/19 A3013
Observed Flight Rules
Oct-20 @ 16:50 UTC
(42 minutes ago)
IFR
Wind Visibility
340° at 10 knots 7 miles
Clouds
  • Overcast at 900' AGL
Temperature Dewpoint
21°C / 70°F 19°C / 66°F
Humidity Altimeter Pressure
88% 30.13" Hg 1020 hPa